createdAt,value
2018-09-14T00:01:45.486Z,99.90
2018-09-14T00:04:19.453Z,99.90
2018-09-14T00:06:52.328Z,99.90
2018-09-14T00:09:25.534Z,99.90
2018-09-14T00:11:58.646Z,99.90
2018-09-14T00:14:31.465Z,99.90
2018-09-14T00:17:10.397Z,99.90
2018-09-14T00:19:43.564Z,99.90
2018-09-14T00:22:17.874Z,99.90
2018-09-14T00:24:50.837Z,99.90
2018-09-14T00:27:25.040Z,99.90
2018-09-14T00:29:58.180Z,99.90
2018-09-14T00:32:36.385Z,99.90
2018-09-14T00:35:12.054Z,99.90
2018-09-14T00:37:46.026Z,99.90
2018-09-14T00:40:19.574Z,99.90
2018-09-14T00:42:55.217Z,99.90
2018-09-14T00:45:29.241Z,99.90
2018-09-14T00:48:03.481Z,99.90
2018-09-14T00:50:37.088Z,99.90
2018-09-14T00:53:11.840Z,99.90
2018-09-14T00:55:45.940Z,99.90
2018-09-14T00:58:19.657Z,99.90
2018-09-14T01:00:59.726Z,99.90
2018-09-14T01:03:32.876Z,99.90
2018-09-14T01:06:10.937Z,99.90
2018-09-14T01:08:48.911Z,99.90
2018-09-14T01:11:25.055Z,99.90
2018-09-14T01:13:59.443Z,99.90
2018-09-14T01:16:35.297Z,99.90
2018-09-14T01:19:13.703Z,99.90
2018-09-14T01:21:47.172Z,99.90
2018-09-14T01:24:20.712Z,99.90
2018-09-14T01:27:01.460Z,99.90
2018-09-14T01:29:34.710Z,99.90
2018-09-14T01:32:07.768Z,99.90
2018-09-14T01:34:41.008Z,99.90
2018-09-14T01:37:19.268Z,99.90
2018-09-14T01:39:57.084Z,99.90
2018-09-14T01:42:30.885Z,99.90
2018-09-14T01:45:06.971Z,99.90
2018-09-14T01:49:09.916Z,99.90
2018-09-14T01:51:43.643Z,99.90
2018-09-14T01:54:16.780Z,99.90
2018-09-14T01:56:54.984Z,99.90
2018-09-14T01:59:28.523Z,99.90
2018-09-14T02:02:02.973Z,99.90
2018-09-14T02:04:35.768Z,99.90
2018-09-14T02:07:10.432Z,99.90
2018-09-14T02:09:44.004Z,99.90
2018-09-14T02:12:18.801Z,99.90
2018-09-14T02:14:55.994Z,99.90
2018-09-14T02:17:29.385Z,99.90
2018-09-14T02:20:02.247Z,99.90
2018-09-14T02:22:35.796Z,99.90
2018-09-14T02:25:14.370Z,99.90
2018-09-14T02:27:49.406Z,99.90
2018-09-14T02:30:24.384Z,99.90
2018-09-14T02:32:57.409Z,99.90
2018-09-14T02:35:30.543Z,99.90
2018-09-14T02:38:03.823Z,99.90
2018-09-14T02:40:42.592Z,99.90
2018-09-14T02:43:15.857Z,99.90
2018-09-14T02:45:49.051Z,99.90
2018-09-14T02:48:26.779Z,99.90
2018-09-14T02:51:01.759Z,99.90
2018-09-14T02:53:35.570Z,99.90
2018-09-14T02:56:09.936Z,99.90
2018-09-14T02:58:44.384Z,99.90
2018-09-14T03:01:22.464Z,99.90
2018-09-14T03:03:55.511Z,99.90
2018-09-14T03:06:28.559Z,99.90
2018-09-14T03:09:01.752Z,99.90
2018-09-14T03:11:35.381Z,99.90
2018-09-14T03:14:08.619Z,99.90
2018-09-14T03:16:42.910Z,99.90
2018-09-14T03:19:15.915Z,99.90
2018-09-14T03:21:48.751Z,99.90
2018-09-14T03:24:22.305Z,99.90
2018-09-14T03:26:55.330Z,99.90
2018-09-14T03:29:28.308Z,99.90
2018-09-14T03:32:01.828Z,99.90
2018-09-14T03:34:35.818Z,99.90
2018-09-14T03:37:15.496Z,99.90
2018-09-14T03:39:48.889Z,99.90
2018-09-14T03:42:22.540Z,99.90
2018-09-14T03:44:55.671Z,99.90
2018-09-14T03:47:29.131Z,99.90
2018-09-14T03:50:03.509Z,99.90
2018-09-14T03:52:36.714Z,99.90
2018-09-14T03:55:09.543Z,99.90
2018-09-14T03:57:43.213Z,99.90
2018-09-14T04:00:16.154Z,99.90
2018-09-14T04:02:49.238Z,99.90
2018-09-14T04:05:22.631Z,99.90
2018-09-14T04:07:55.987Z,99.90
2018-09-14T04:10:29.792Z,99.90
2018-09-14T04:13:07.760Z,99.90
2018-09-14T04:15:41.204Z,99.90
2018-09-14T04:18:14.660Z,99.90
2018-09-14T04:20:55.300Z,99.90
2018-09-14T04:23:29.139Z,99.90
2018-09-14T04:26:03.501Z,99.90
2018-09-14T04:28:36.813Z,99.90
2018-09-14T04:31:10.579Z,99.90
2018-09-14T04:33:44.216Z,99.90
2018-09-14T04:36:17.829Z,99.90
2018-09-14T04:38:51.305Z,99.90
2018-09-14T04:41:25.143Z,99.90
2018-09-14T04:43:58.712Z,99.90
2018-09-14T04:46:32.205Z,99.90
2018-09-14T04:49:05.894Z,99.90
2018-09-14T04:51:39.241Z,99.90
2018-09-14T04:54:12.973Z,99.90
2018-09-14T04:56:46.452Z,99.90
2018-09-14T04:59:20.906Z,99.90
2018-09-14T05:01:58.934Z,99.90
2018-09-14T05:04:32.828Z,99.90
2018-09-14T05:07:06.875Z,99.90
2018-09-14T05:09:40.669Z,99.90
2018-09-14T05:12:14.388Z,99.90
2018-09-14T05:14:48.035Z,99.90
2018-09-14T05:17:28.330Z,99.90
2018-09-14T05:20:01.922Z,99.90
2018-09-14T05:22:35.860Z,99.90
2018-09-14T05:25:09.326Z,99.90
2018-09-14T05:27:42.665Z,99.90
2018-09-14T05:30:16.053Z,99.90
2018-09-14T05:32:49.245Z,99.90
2018-09-14T05:35:22.640Z,99.90
2018-09-14T05:38:03.075Z,99.90
2018-09-14T05:40:36.676Z,99.90
2018-09-14T05:43:09.869Z,99.90
2018-09-14T05:45:43.531Z,99.90
2018-09-14T05:48:19.054Z,99.90
2018-09-14T05:50:53.282Z,99.90
2018-09-14T05:53:26.745Z,99.90
2018-09-14T05:56:01.149Z,99.90
2018-09-14T05:58:34.798Z,99.90
2018-09-14T06:01:08.114Z,99.90
2018-09-14T06:03:41.835Z,99.90
2018-09-14T06:06:15.440Z,99.90
2018-09-14T06:08:49.140Z,99.90
2018-09-14T06:11:22.557Z,99.90
2018-09-14T06:14:03.128Z,99.90
2018-09-14T06:16:37.412Z,99.90
2018-09-14T06:19:10.855Z,99.90
2018-09-14T06:21:45.101Z,99.90
2018-09-14T06:24:18.503Z,99.90
2018-09-14T06:26:51.652Z,99.90
2018-09-14T06:29:25.577Z,99.90
2018-09-14T06:31:58.963Z,99.90
2018-09-14T06:34:32.475Z,99.90
2018-09-14T06:37:06.216Z,99.90
2018-09-14T06:39:39.763Z,99.90
2018-09-14T06:42:13.429Z,99.90
2018-09-14T06:44:47.121Z,99.90
2018-09-14T06:47:20.860Z,99.90
2018-09-14T06:50:00.830Z,99.90
2018-09-14T06:52:34.808Z,99.90
2018-09-14T06:55:08.121Z,99.90
2018-09-14T06:57:41.605Z,99.90
2018-09-14T07:00:22.130Z,99.90
2018-09-14T07:03:01.584Z,99.90
2018-09-14T07:05:35.221Z,99.90
2018-09-14T07:08:08.910Z,99.90
2018-09-14T07:10:43.069Z,99.90
2018-09-14T07:13:17.262Z,99.90
2018-09-14T07:15:50.947Z,99.90
2018-09-14T07:18:24.307Z,99.90
2018-09-14T07:20:57.853Z,99.90
2018-09-14T07:23:32.011Z,99.90
2018-09-14T07:26:05.763Z,99.90
2018-09-14T07:28:40.250Z,99.90
2018-09-14T07:31:19.519Z,99.90
2018-09-14T07:33:53.348Z,99.90
2018-09-14T07:36:26.990Z,99.90
2018-09-14T07:39:00.921Z,99.90
2018-09-14T07:41:35.286Z,99.90
2018-09-14T07:44:15.046Z,99.90
2018-09-14T07:46:50.012Z,99.90
2018-09-14T07:49:25.907Z,99.90
2018-09-14T07:51:59.695Z,99.90
2018-09-14T07:54:33.649Z,99.90
2018-09-14T07:57:07.133Z,99.90
2018-09-14T07:59:48.435Z,99.90
2018-09-14T08:02:21.985Z,99.90
2018-09-14T08:04:55.824Z,99.90
2018-09-14T08:07:29.474Z,99.90
2018-09-14T08:10:02.837Z,99.90
2018-09-14T08:12:36.356Z,99.90
2018-09-14T08:15:10.669Z,99.90
2018-09-14T08:17:43.980Z,99.90
2018-09-14T08:20:17.555Z,99.90
2018-09-14T08:22:51.086Z,99.90
2018-09-14T08:25:24.192Z,99.90
2018-09-14T08:27:57.562Z,99.90
2018-09-14T08:30:30.930Z,99.90
2018-09-14T08:33:04.466Z,99.90
2018-09-14T08:35:37.783Z,99.90
2018-09-14T08:38:11.160Z,99.90
2018-09-14T08:40:44.541Z,99.90
2018-09-14T08:43:24.411Z,99.90
2018-09-14T08:45:58.094Z,99.90
2018-09-14T08:48:31.684Z,99.90
2018-09-14T08:51:05.121Z,99.90
2018-09-14T08:53:38.328Z,99.90
2018-09-14T08:56:11.929Z,99.90
2018-09-14T08:58:45.724Z,99.90
2018-09-14T09:01:19.077Z,99.90
2018-09-14T09:03:54.092Z,99.90
2018-09-14T09:06:33.975Z,99.90
2018-09-14T09:09:11.291Z,99.90
2018-09-14T09:11:45.152Z,99.90
2018-09-14T09:14:18.530Z,99.90
2018-09-14T09:16:51.992Z,99.90
2018-09-14T09:19:25.880Z,99.90
2018-09-14T09:21:59.696Z,99.90
2018-09-14T09:24:33.056Z,99.90
2018-09-14T09:27:06.836Z,99.90
2018-09-14T09:29:47.253Z,99.90
2018-09-14T09:32:20.946Z,99.90
2018-09-14T09:34:54.827Z,99.90
2018-09-14T09:37:28.668Z,99.90
2018-09-14T09:40:02.342Z,99.90
2018-09-14T09:42:36.124Z,99.90
2018-09-14T09:45:09.567Z,99.90
2018-09-14T09:47:43.155Z,99.90
2018-09-14T09:50:16.350Z,99.90
2018-09-14T09:52:49.222Z,99.90
2018-09-14T09:55:22.284Z,99.90
2018-09-14T09:57:55.333Z,99.90
2018-09-14T10:00:32.568Z,99.90
2018-09-14T10:03:09.883Z,99.90
2018-09-14T10:05:47.055Z,99.90
2018-09-14T10:08:24.942Z,99.90
2018-09-14T10:10:58.033Z,99.90
2018-09-14T10:13:31.253Z,99.90
2018-09-14T10:16:04.168Z,99.90
2018-09-14T10:18:42.997Z,99.90
2018-09-14T10:21:16.418Z,99.90
2018-09-14T10:23:51.373Z,99.90
2018-09-14T10:26:24.665Z,99.90
2018-09-14T10:29:05.210Z,99.90
2018-09-14T10:31:38.161Z,99.90
2018-09-14T10:34:12.638Z,99.90
2018-09-14T10:36:46.063Z,99.90
2018-09-14T10:39:19.123Z,99.90
2018-09-14T10:41:52.109Z,99.90
2018-09-14T10:44:26.260Z,99.90
2018-09-14T10:46:59.552Z,99.90
2018-09-14T10:49:33.370Z,99.90
2018-09-14T10:52:06.353Z,99.90
2018-09-14T10:54:40.080Z,99.90
2018-09-14T10:57:18.163Z,99.90
2018-09-14T10:59:51.336Z,99.90
2018-09-14T11:02:25.255Z,99.90
2018-09-14T11:04:59.434Z,99.90
2018-09-14T11:07:32.544Z,99.90
2018-09-14T11:10:06.089Z,99.90
2018-09-14T11:12:39.384Z,99.90
2018-09-14T11:15:13.089Z,99.90
2018-09-14T11:17:54.523Z,99.90
2018-09-14T11:20:28.247Z,99.90
2018-09-14T11:23:01.430Z,99.90
2018-09-14T11:25:34.583Z,99.90
2018-09-14T11:28:07.717Z,99.90
2018-09-14T11:30:46.092Z,99.90
2018-09-14T11:33:23.281Z,99.90
2018-09-14T11:35:58.165Z,99.90
2018-09-14T11:38:39.820Z,99.90
2018-09-14T11:42:42.193Z,99.90
2018-09-14T11:45:15.743Z,99.90
2018-09-14T11:47:50.116Z,99.90
2018-09-14T11:50:23.766Z,99.90
2018-09-14T11:53:00.900Z,99.90
2018-09-14T11:55:34.254Z,99.90
2018-09-14T11:58:07.082Z,99.90
2018-09-14T12:00:41.211Z,99.90
2018-09-14T12:03:19.655Z,99.90
2018-09-14T12:05:56.041Z,99.90
2018-09-14T12:08:29.047Z,99.90
2018-09-14T12:11:02.058Z,99.90
2018-09-14T12:13:35.252Z,99.90
2018-09-14T12:16:08.140Z,99.90
2018-09-14T12:18:45.720Z,99.90
2018-09-14T12:21:18.697Z,99.90
2018-09-14T12:23:52.552Z,99.90
2018-09-14T12:26:25.461Z,99.90
2018-09-14T12:28:58.582Z,99.90
2018-09-14T12:31:37.986Z,99.90
2018-09-14T12:34:10.388Z,99.90
2018-09-14T12:36:46.230Z,99.90
2018-09-14T12:39:22.998Z,99.90
2018-09-14T12:41:59.153Z,99.90
2018-09-14T12:44:34.586Z,99.90
2018-09-14T12:47:10.704Z,99.90
2018-09-14T12:49:47.121Z,99.90
2018-09-14T12:52:24.235Z,99.90
2018-09-14T12:54:59.854Z,99.90
2018-09-14T12:57:37.838Z,99.90
2018-09-14T13:00:14.226Z,99.90
2018-09-14T13:02:48.733Z,99.90
2018-09-14T13:05:24.266Z,99.90
2018-09-14T13:08:01.493Z,99.90
2018-09-14T13:10:36.356Z,99.90
2018-09-14T13:13:10.182Z,99.90
2018-09-14T13:15:49.184Z,99.90
2018-09-14T13:18:24.671Z,99.90
2018-09-14T13:21:00.540Z,99.90
2018-09-14T13:23:35.774Z,99.90
2018-09-14T13:26:12.456Z,99.90
2018-09-14T13:28:48.517Z,99.90
2018-09-14T13:31:23.834Z,99.90
2018-09-14T13:33:59.564Z,99.90
2018-09-14T13:36:35.695Z,99.90
2018-09-14T13:39:11.601Z,99.90
2018-09-14T13:41:46.152Z,99.90
2018-09-14T13:44:19.226Z,99.90
2018-09-14T13:46:57.512Z,99.90
2018-09-14T13:49:30.602Z,99.90
2018-09-14T13:52:04.574Z,99.90
2018-09-14T13:54:38.529Z,99.90
2018-09-14T13:57:11.904Z,99.90
2018-09-14T13:59:54.103Z,99.90
2018-09-14T14:02:27.403Z,99.90
2018-09-14T14:05:04.779Z,99.90
2018-09-14T14:07:41.692Z,99.90
2018-09-14T14:10:21.905Z,99.90
2018-09-14T14:12:58.508Z,99.90
2018-09-14T14:15:35.296Z,99.90
2018-09-14T14:18:12.296Z,99.90
2018-09-14T14:20:52.590Z,99.90
2018-09-14T14:23:29.303Z,99.90
2018-09-14T14:26:07.329Z,99.90
2018-09-14T14:28:44.197Z,99.90
2018-09-14T14:31:22.241Z,99.90
2018-09-14T14:34:02.343Z,99.90
2018-09-14T14:36:36.690Z,99.90
2018-09-14T14:39:14.091Z,99.90
2018-09-14T14:41:51.532Z,99.90
2018-09-14T14:44:25.776Z,99.90
2018-09-14T14:47:00.017Z,99.90
2018-09-14T14:49:33.332Z,99.90
2018-09-14T14:52:08.260Z,99.90
2018-09-14T14:54:46.454Z,99.90
2018-09-14T14:57:21.508Z,99.90
2018-09-14T14:59:54.542Z,99.90
2018-09-14T15:02:27.689Z,99.90
2018-09-14T15:05:01.327Z,99.90
2018-09-14T15:07:34.711Z,99.90
2018-09-14T15:10:07.809Z,99.90
2018-09-14T15:12:41.018Z,99.90
2018-09-14T15:15:13.952Z,99.90
2018-09-14T15:17:46.989Z,99.90
2018-09-14T15:20:20.961Z,99.90
2018-09-14T15:22:53.967Z,99.90
2018-09-14T15:28:07.007Z,99.90
2018-09-14T15:30:40.112Z,99.90
2018-09-14T15:33:14.770Z,99.90
2018-09-14T15:35:48.246Z,99.90
2018-09-14T15:38:22.270Z,99.90
2018-09-14T15:41:08.937Z,99.90
2018-09-14T15:43:46.828Z,99.90
2018-09-14T15:46:20.152Z,99.90
2018-09-14T15:48:52.980Z,99.90
2018-09-14T15:51:30.010Z,99.90
2018-09-14T15:54:09.078Z,99.90
2018-09-14T15:56:42.219Z,99.90
2018-09-14T15:59:17.730Z,99.90
2018-09-14T16:01:50.917Z,99.90
2018-09-14T16:04:24.441Z,99.90
2018-09-14T16:06:59.700Z,99.90
2018-09-14T16:09:34.598Z,99.90
2018-09-14T16:12:09.677Z,99.90
2018-09-14T16:14:45.331Z,99.90
2018-09-14T16:17:23.905Z,99.90
2018-09-14T16:19:57.343Z,99.90
2018-09-14T16:22:32.112Z,99.90
2018-09-14T16:25:07.017Z,99.90
2018-09-14T16:27:44.601Z,99.30
2018-09-14T16:30:20.671Z,99.20
2018-09-14T16:32:55.896Z,98.80
2018-09-14T16:35:32.093Z,98.50
2018-09-14T16:38:06.033Z,98.40
2018-09-14T16:40:40.426Z,97.80
2018-09-14T16:43:17.048Z,98.10
2018-09-14T16:45:50.877Z,98.00
2018-09-14T16:48:32.097Z,97.80
2018-09-14T16:51:05.577Z,97.80
2018-09-14T16:53:44.175Z,97.90
2018-09-14T16:56:26.670Z,97.20
2018-09-14T16:59:00.943Z,97.20
2018-09-14T17:01:37.989Z,97.10
2018-09-14T17:04:13.164Z,96.80
2018-09-14T17:06:46.499Z,96.00
2018-09-14T17:09:19.967Z,96.20
2018-09-14T17:12:02.910Z,96.30
2018-09-14T17:14:36.322Z,96.40
2018-09-14T17:17:09.796Z,96.40
2018-09-14T17:19:42.784Z,96.30
2018-09-14T17:22:15.836Z,96.10
2018-09-14T17:24:48.949Z,96.10
2018-09-14T17:27:21.868Z,95.90
2018-09-14T17:30:02.169Z,95.70
2018-09-14T17:32:35.095Z,95.40
2018-09-14T17:35:08.069Z,95.10
2018-09-14T17:37:41.015Z,95.00
2018-09-14T17:40:13.861Z,94.60
2018-09-14T17:42:46.773Z,94.80
2018-09-14T17:45:19.757Z,94.70
2018-09-14T17:47:52.385Z,94.60
2018-09-14T17:50:25.537Z,94.30
2018-09-14T17:53:05.251Z,94.60
2018-09-14T17:55:38.367Z,94.00
2018-09-14T17:58:14.872Z,94.50
2018-09-14T18:00:54.761Z,94.80
2018-09-14T18:03:28.156Z,94.60
2018-09-14T18:06:01.723Z,94.40
2018-09-14T18:08:34.770Z,94.30
2018-09-14T18:11:07.663Z,94.30
2018-09-14T18:13:40.776Z,94.30
2018-09-14T18:16:13.660Z,94.20
2018-09-14T18:18:46.540Z,94.30
2018-09-14T18:21:19.793Z,94.20
2018-09-14T18:23:59.653Z,94.30
2018-09-14T18:26:35.214Z,94.30
2018-09-14T18:29:08.644Z,94.40
2018-09-14T18:31:42.699Z,94.30
2018-09-14T18:34:16.690Z,94.00
2018-09-14T18:36:49.883Z,93.70
2018-09-14T18:39:22.873Z,93.90
2018-09-14T18:41:57.148Z,94.00
2018-09-14T18:44:29.993Z,93.50
2018-09-14T18:47:02.880Z,93.80
2018-09-14T18:49:36.060Z,94.00
2018-09-14T18:52:08.983Z,94.30
2018-09-14T18:54:43.589Z,93.90
2018-09-14T18:57:22.033Z,93.50
2018-09-14T18:59:55.664Z,93.00
2018-09-14T19:02:35.792Z,93.00
2018-09-14T19:05:09.353Z,92.80
2018-09-14T19:07:42.822Z,93.00
2018-09-14T19:10:16.600Z,93.40
2018-09-14T19:12:49.584Z,93.20
2018-09-14T19:15:22.618Z,93.20
2018-09-14T19:17:55.486Z,93.10
2018-09-14T19:20:28.437Z,93.40
2018-09-14T19:23:01.504Z,93.60
2018-09-14T19:25:42.193Z,93.60
2018-09-14T19:28:22.995Z,93.50
2018-09-14T19:30:56.018Z,93.50
2018-09-14T19:33:29.056Z,93.60
2018-09-14T19:36:08.472Z,93.70
2018-09-14T19:38:42.331Z,93.70
2018-09-14T19:41:16.464Z,93.90
2018-09-14T19:43:49.540Z,94.30
2018-09-14T19:46:23.870Z,94.30
2018-09-14T19:48:56.880Z,94.60
2018-09-14T19:51:29.860Z,94.80
2018-09-14T19:56:56.261Z,95.40
2018-09-14T19:59:29.375Z,95.20
2018-09-14T20:02:02.805Z,94.70
2018-09-14T20:04:35.859Z,94.60
2018-09-14T20:07:14.893Z,94.70
2018-09-14T20:09:48.184Z,94.70
2018-09-14T20:12:22.154Z,95.20
2018-09-14T20:15:00.461Z,94.90
2018-09-14T20:17:33.556Z,95.00
2018-09-14T20:20:06.930Z,95.20
2018-09-14T20:22:39.821Z,95.40
2018-09-14T20:25:13.564Z,95.60
2018-09-14T20:27:46.884Z,95.90
2018-09-14T20:30:21.548Z,96.30
2018-09-14T20:32:54.706Z,96.80
2018-09-14T20:35:27.593Z,97.10
2018-09-14T20:38:03.104Z,97.50
2018-09-14T20:40:36.381Z,97.70
2018-09-14T20:43:09.742Z,97.80
2018-09-14T20:45:43.125Z,98.00
2018-09-14T20:48:16.902Z,98.10
2018-09-14T20:50:49.810Z,98.50
2018-09-14T20:53:22.712Z,99.00
2018-09-14T20:55:57.235Z,99.50
2018-09-14T20:58:30.334Z,99.20
2018-09-14T21:01:06.866Z,99.10
2018-09-14T21:03:40.136Z,98.80
2018-09-14T21:06:19.501Z,98.60
2018-09-14T21:08:52.703Z,98.30
2018-09-14T21:11:26.961Z,98.40
2018-09-14T21:14:00.523Z,99.30
2018-09-14T21:16:42.216Z,99.90
2018-09-14T21:19:17.870Z,99.90
2018-09-14T21:21:51.790Z,99.90
2018-09-14T21:25:53.638Z,99.90
2018-09-14T21:28:26.787Z,99.90
2018-09-14T21:30:59.745Z,99.90
2018-09-14T21:33:34.141Z,99.90
2018-09-14T21:36:07.060Z,99.90
2018-09-14T21:38:46.304Z,99.90
2018-09-14T21:41:19.314Z,99.90
2018-09-14T21:43:53.328Z,99.90
2018-09-14T21:46:27.629Z,99.90
2018-09-14T21:49:02.187Z,99.90
2018-09-14T21:51:35.560Z,99.90
2018-09-14T21:54:08.446Z,99.90
2018-09-14T21:56:41.871Z,99.90
2018-09-14T21:59:14.822Z,99.90
2018-09-14T22:01:54.377Z,99.90
2018-09-14T22:04:27.659Z,99.90
2018-09-14T22:07:00.710Z,99.90
2018-09-14T22:09:33.514Z,99.90
2018-09-14T22:12:06.777Z,99.90
2018-09-14T22:14:39.697Z,99.90
2018-09-14T22:17:12.690Z,99.90
2018-09-14T22:19:45.508Z,99.90
2018-09-14T22:22:18.861Z,99.90
2018-09-14T22:24:51.773Z,99.90
2018-09-14T22:27:25.036Z,99.90
2018-09-14T22:29:57.862Z,99.90
2018-09-14T22:32:30.777Z,99.90
2018-09-14T22:35:04.529Z,99.90
2018-09-14T22:37:37.952Z,99.90
2018-09-14T22:40:11.080Z,99.90
2018-09-14T22:42:44.866Z,99.90
2018-09-14T22:45:17.988Z,99.90
2018-09-14T22:47:50.881Z,99.90
2018-09-14T22:50:27.790Z,99.90
2018-09-14T22:53:06.514Z,99.90
2018-09-14T22:55:40.522Z,99.90
2018-09-14T22:58:13.377Z,99.90
2018-09-14T23:00:51.665Z,99.90
2018-09-14T23:03:24.755Z,99.90
2018-09-14T23:05:58.259Z,99.90
2018-09-14T23:08:31.460Z,99.90
2018-09-14T23:11:04.244Z,99.90
2018-09-14T23:13:45.018Z,99.90
2018-09-14T23:16:18.018Z,99.90
2018-09-14T23:18:51.375Z,99.90
2018-09-14T23:21:24.787Z,99.90
2018-09-14T23:24:00.587Z,99.90
2018-09-14T23:28:02.471Z,99.90
2018-09-14T23:30:38.897Z,99.90
2018-09-14T23:33:18.465Z,99.90
2018-09-14T23:35:56.498Z,99.90
2018-09-14T23:38:29.674Z,99.90
2018-09-14T23:41:02.649Z,99.90
2018-09-14T23:43:35.696Z,99.90
2018-09-14T23:46:09.547Z,99.90
2018-09-14T23:48:44.301Z,99.90
2018-09-14T23:51:17.812Z,99.90
2018-09-14T23:53:51.578Z,99.90
